createdAt,value
2023-02-04T00:01:49.995Z,51.10
2023-02-04T00:03:52.365Z,50.95
2023-02-04T00:05:53.728Z,51.02
2023-02-04T00:07:55.058Z,50.71
2023-02-04T00:09:56.393Z,51.07
2023-02-04T00:11:57.684Z,51.11
2023-02-04T00:13:59.026Z,50.92
2023-02-04T00:16:00.369Z,51.13
2023-02-04T00:18:02.285Z,50.94
2023-02-04T00:20:04.051Z,50.83
2023-02-04T00:22:07.050Z,50.81
2023-02-04T00:24:08.348Z,51.05
2023-02-04T00:26:09.635Z,51.21
2023-02-04T00:28:11.036Z,51.62
2023-02-04T00:30:12.372Z,50.82
2023-02-04T00:32:13.783Z,51.19
2023-02-04T00:34:15.203Z,51.06
2023-02-04T00:36:16.498Z,51.56
2023-02-04T00:38:17.809Z,51.72
2023-02-04T00:40:19.156Z,51.52
2023-02-04T00:42:20.494Z,52.04
2023-02-04T00:44:21.823Z,52.08
2023-02-04T00:46:23.103Z,52.36
2023-02-04T00:48:26.653Z,52.43
2023-02-04T00:50:28.268Z,52.23
2023-02-04T00:52:29.715Z,52.40
2023-02-04T00:54:31.061Z,52.45
2023-02-04T00:56:32.399Z,52.37
2023-02-04T00:58:33.707Z,52.69
2023-02-04T01:00:35.015Z,51.36
2023-02-04T01:02:36.369Z,44.39
2023-02-04T01:04:37.666Z,43.04
2023-02-04T01:06:38.955Z,46.89
2023-02-04T01:08:40.255Z,46.22
2023-02-04T01:10:41.589Z,45.77
2023-02-04T01:12:43.081Z,46.06
2023-02-04T01:14:44.651Z,46.68
2023-02-04T01:16:46.045Z,46.80
2023-02-04T01:18:47.404Z,47.60
2023-02-04T01:20:48.720Z,47.69
2023-02-04T01:22:50.016Z,47.83
2023-02-04T01:24:51.376Z,48.44
2023-02-04T01:26:52.667Z,48.44
2023-02-04T01:28:53.967Z,48.79
2023-02-04T01:30:55.370Z,48.92
2023-02-04T01:32:56.702Z,48.59
2023-02-04T01:34:58.048Z,49.26
2023-02-04T01:36:59.368Z,49.21
2023-02-04T01:39:01.083Z,49.48
2023-02-04T01:41:02.427Z,49.18
2023-02-04T01:43:03.730Z,49.85
2023-02-04T01:45:06.468Z,49.63
2023-02-04T01:47:07.819Z,49.83
2023-02-04T01:49:09.131Z,49.93
2023-02-04T01:51:11.104Z,50.43
2023-02-04T01:53:12.397Z,51.08
2023-02-04T01:55:13.687Z,50.91
2023-02-04T01:57:14.990Z,51.60
2023-02-04T01:59:16.341Z,52.00
2023-02-04T02:01:17.694Z,51.51
2023-02-04T02:03:19.078Z,52.49
2023-02-04T02:05:21.283Z,51.95
2023-02-04T02:07:22.586Z,51.67
2023-02-04T02:09:23.925Z,52.34
2023-02-04T02:11:25.252Z,52.10
2023-02-04T02:13:26.579Z,52.33
2023-02-04T02:15:27.917Z,52.85
2023-02-04T02:17:29.287Z,52.96
2023-02-04T02:19:30.583Z,52.81
2023-02-04T02:21:31.872Z,53.26
2023-02-04T02:23:33.176Z,52.73
2023-02-04T02:25:34.534Z,52.97
2023-02-04T02:27:35.886Z,53.13
2023-02-04T02:29:37.186Z,53.25
2023-02-04T02:31:38.635Z,53.53
2023-02-04T02:33:39.963Z,53.19
2023-02-04T02:35:43.479Z,53.29
2023-02-04T02:37:44.803Z,53.55
2023-02-04T02:39:46.240Z,53.71
2023-02-04T02:41:47.607Z,53.41
2023-02-04T02:43:48.904Z,53.68
2023-02-04T02:45:50.229Z,53.72
2023-02-04T02:47:51.595Z,53.76
2023-02-04T02:49:52.976Z,53.76
2023-02-04T02:51:54.273Z,53.65
2023-02-04T02:53:55.615Z,53.89
2023-02-04T02:55:56.976Z,54.08
2023-02-04T02:57:58.330Z,53.76
2023-02-04T02:59:59.626Z,53.95
2023-02-04T03:02:00.964Z,54.02
2023-02-04T03:04:02.717Z,54.17
2023-02-04T03:06:04.024Z,53.57
2023-02-04T03:08:05.367Z,53.84
2023-02-04T03:10:06.708Z,53.88
2023-02-04T03:12:08.024Z,52.96
2023-02-04T03:14:09.319Z,52.91
2023-02-04T03:16:10.715Z,53.37
2023-02-04T03:18:12.032Z,53.34
2023-02-04T03:20:13.361Z,53.43
2023-02-04T03:22:14.747Z,53.62
2023-02-04T03:24:16.036Z,53.73
2023-02-04T03:26:17.342Z,53.85
2023-02-04T03:28:18.728Z,53.84
2023-02-04T03:30:20.062Z,53.31
2023-02-04T03:32:21.512Z,53.26
2023-02-04T03:34:22.902Z,53.32
2023-02-04T03:36:24.218Z,54.02
2023-02-04T03:38:25.596Z,53.66
2023-02-04T03:40:26.931Z,53.98
2023-02-04T03:42:28.222Z,54.06
2023-02-04T03:44:29.548Z,53.97
2023-02-04T03:46:30.883Z,54.73
2023-02-04T03:48:32.212Z,54.27
2023-02-04T03:50:33.868Z,54.38
2023-02-04T03:52:35.302Z,54.66
2023-02-04T03:54:36.652Z,54.76
2023-02-04T03:56:37.957Z,54.75
2023-02-04T03:58:39.281Z,54.58
2023-02-04T04:00:40.614Z,54.87
2023-02-04T04:02:41.985Z,54.59
2023-02-04T04:04:43.357Z,54.84
2023-02-04T04:06:44.700Z,55.19
2023-02-04T04:08:46.025Z,55.10
2023-02-04T04:10:47.335Z,55.24
2023-02-04T04:12:48.674Z,54.80
2023-02-04T04:14:49.999Z,54.80
2023-02-04T04:16:51.298Z,54.77
2023-02-04T04:18:52.586Z,54.78
2023-02-04T04:20:53.932Z,55.41
2023-02-04T04:22:55.240Z,55.05
2023-02-04T04:24:56.531Z,55.36
2023-02-04T04:26:57.827Z,54.91
2023-02-04T04:28:59.167Z,55.35
2023-02-04T04:31:00.634Z,54.54
2023-02-04T04:33:02.259Z,54.54
2023-02-04T04:35:03.571Z,55.12
2023-02-04T04:37:04.868Z,54.72
2023-02-04T04:39:06.197Z,54.73
2023-02-04T04:41:07.494Z,54.71
2023-02-04T04:43:08.787Z,54.59
2023-02-04T04:45:10.128Z,54.91
2023-02-04T04:47:11.450Z,54.40
2023-02-04T04:49:12.802Z,54.68
2023-02-04T04:51:14.156Z,54.57
2023-02-04T04:53:15.455Z,54.98
2023-02-04T04:55:16.788Z,54.95
2023-02-04T04:57:18.124Z,54.87
2023-02-04T04:59:19.463Z,55.24
2023-02-04T05:01:22.646Z,54.97
2023-02-04T05:03:24.040Z,55.34
2023-02-04T05:05:25.362Z,55.46
2023-02-04T05:07:27.707Z,55.42
2023-02-04T05:09:29.118Z,55.57
2023-02-04T05:11:30.981Z,55.29
2023-02-04T05:13:32.290Z,55.37
2023-02-04T05:15:33.588Z,55.88
2023-02-04T05:17:34.885Z,55.65
2023-02-04T05:19:36.216Z,55.89
2023-02-04T05:21:37.558Z,55.55
2023-02-04T05:23:38.881Z,55.28
2023-02-04T05:25:40.204Z,55.76
2023-02-04T05:27:41.656Z,55.47
2023-02-04T05:29:42.984Z,55.68
2023-02-04T05:31:44.287Z,55.76
2023-02-04T05:33:45.674Z,56.14
2023-02-04T05:35:48.140Z,56.17
2023-02-04T05:37:50.903Z,55.97
2023-02-04T05:39:52.285Z,56.04
2023-02-04T05:41:53.679Z,55.98
2023-02-04T05:43:55.004Z,55.75
2023-02-04T05:45:56.861Z,55.58
2023-02-04T05:47:58.184Z,55.20
2023-02-04T05:49:59.475Z,55.11
2023-02-04T05:52:00.847Z,55.01
2023-02-04T05:54:02.195Z,55.14
2023-02-04T05:56:03.501Z,54.88
2023-02-04T05:58:04.875Z,54.30
2023-02-04T06:00:06.215Z,54.24
2023-02-04T06:02:07.535Z,54.25
2023-02-04T06:04:08.962Z,54.57
2023-02-04T06:06:10.432Z,54.97
2023-02-04T06:08:11.806Z,54.51
2023-02-04T06:10:13.097Z,54.97
2023-02-04T06:12:14.442Z,54.57
2023-02-04T06:14:15.748Z,54.85
2023-02-04T06:16:17.160Z,55.30
2023-02-04T06:18:18.475Z,55.02
2023-02-04T06:20:19.820Z,55.42
2023-02-04T06:22:21.107Z,55.01
2023-02-04T06:24:22.442Z,55.02
2023-02-04T06:26:23.851Z,55.60
2023-02-04T06:28:25.171Z,55.73
2023-02-04T06:30:26.514Z,55.37
2023-02-04T06:32:27.814Z,55.34
2023-02-04T06:34:29.127Z,55.78
2023-02-04T06:36:30.453Z,55.38
2023-02-04T06:38:31.827Z,55.96
2023-02-04T06:40:33.320Z,55.80
2023-02-04T06:42:34.865Z,55.69
2023-02-04T06:44:36.201Z,55.36
2023-02-04T06:46:37.567Z,55.83
2023-02-04T06:48:39.066Z,55.53
2023-02-04T06:50:40.419Z,55.62
2023-02-04T06:52:41.727Z,55.67
2023-02-04T06:54:43.132Z,55.90
2023-02-04T06:56:44.441Z,56.08
2023-02-04T06:58:45.783Z,56.06
2023-02-04T07:00:47.131Z,55.58
2023-02-04T07:02:48.530Z,55.55
2023-02-04T07:04:49.905Z,55.85
2023-02-04T07:06:51.487Z,56.13
2023-02-04T07:08:52.820Z,56.31
2023-02-04T07:10:54.122Z,56.08
2023-02-04T07:12:55.448Z,56.48
2023-02-04T07:14:56.759Z,56.86
2023-02-04T07:16:58.720Z,56.98
2023-02-04T07:19:00.088Z,56.72
2023-02-04T07:21:02.175Z,56.59
2023-02-04T07:23:03.586Z,56.66
2023-02-04T07:25:04.914Z,56.43
2023-02-04T07:27:06.272Z,56.57
2023-02-04T07:29:12.205Z,56.34
2023-02-04T07:31:16.242Z,55.98
2023-02-04T07:33:17.624Z,56.29
2023-02-04T07:35:18.975Z,56.09
2023-02-04T07:37:20.680Z,55.71
2023-02-04T07:39:22.016Z,56.16
2023-02-04T07:41:23.353Z,55.56
2023-02-04T07:43:24.743Z,55.77
2023-02-04T07:45:26.447Z,55.64
2023-02-04T07:47:27.768Z,55.84
2023-02-04T07:49:29.133Z,55.70
2023-02-04T07:51:30.465Z,55.80
2023-02-04T07:53:31.797Z,55.66
2023-02-04T07:55:33.099Z,55.20
2023-02-04T07:57:34.508Z,55.22
2023-02-04T07:59:35.796Z,55.78
2023-02-04T08:01:37.145Z,55.70
2023-02-04T08:03:41.905Z,55.73
2023-02-04T08:05:43.302Z,56.02
2023-02-04T08:07:44.683Z,55.78
2023-02-04T08:09:47.013Z,55.99
2023-02-04T08:11:48.349Z,56.22
2023-02-04T08:13:49.645Z,56.07
2023-02-04T08:15:50.989Z,55.86
2023-02-04T08:17:52.412Z,56.33
2023-02-04T08:19:53.716Z,55.77
2023-02-04T08:21:55.115Z,55.81
2023-02-04T08:23:56.503Z,55.37
2023-02-04T08:25:57.799Z,55.79
2023-02-04T08:27:59.124Z,55.71
2023-02-04T08:30:03.210Z,55.59
2023-02-04T08:32:04.584Z,55.31
2023-02-04T08:34:06.001Z,55.25
2023-02-04T08:36:07.408Z,54.91
2023-02-04T08:38:08.755Z,55.13
2023-02-04T08:40:10.353Z,54.60
2023-02-04T08:42:11.648Z,54.75
2023-02-04T08:44:13.071Z,54.61
2023-02-04T08:46:14.418Z,54.80
2023-02-04T08:48:15.869Z,54.26
2023-02-04T08:50:17.307Z,54.26
2023-02-04T08:52:19.274Z,54.12
2023-02-04T08:54:20.624Z,54.08
2023-02-04T08:56:21.971Z,53.49
2023-02-04T08:58:23.415Z,53.44
2023-02-04T09:00:27.423Z,52.57
2023-02-04T09:02:28.789Z,52.39
2023-02-04T09:04:30.233Z,52.29
2023-02-04T09:06:31.753Z,52.12
2023-02-04T09:08:33.062Z,51.54
2023-02-04T09:10:34.685Z,52.20
2023-02-04T09:12:36.093Z,51.62
2023-02-04T09:14:37.407Z,51.78
2023-02-04T09:16:38.802Z,51.64
2023-02-04T09:18:40.669Z,52.14
2023-02-04T09:20:42.012Z,52.30
2023-02-04T09:22:43.347Z,51.87
2023-02-04T09:24:44.686Z,52.34
2023-02-04T09:26:46.013Z,52.35
2023-02-04T09:28:48.709Z,52.06
2023-02-04T09:30:50.174Z,52.72
2023-02-04T09:32:51.588Z,52.77
2023-02-04T09:34:52.936Z,52.62
2023-02-04T09:36:54.223Z,52.45
2023-02-04T09:38:55.589Z,52.55
2023-02-04T09:40:56.916Z,42.93
2023-02-04T09:42:58.217Z,40.72
2023-02-04T09:45:03.118Z,40.81
2023-02-04T09:47:04.423Z,41.44
2023-02-04T09:49:05.812Z,43.01
2023-02-04T09:51:07.178Z,41.46
2023-02-04T09:53:08.512Z,42.03
2023-02-04T09:55:10.140Z,43.42
2023-02-04T09:57:11.435Z,44.12
2023-02-04T09:59:12.767Z,43.93
2023-02-04T10:01:14.583Z,44.16
2023-02-04T10:03:16.429Z,44.50
2023-02-04T10:05:17.759Z,44.54
2023-02-04T10:07:22.176Z,45.80
2023-02-04T10:09:23.519Z,45.38
2023-02-04T10:11:24.810Z,45.99
2023-02-04T10:13:26.236Z,45.02
2023-02-04T10:15:27.611Z,45.23
2023-02-04T10:17:28.902Z,45.05
2023-02-04T10:19:32.963Z,45.18
2023-02-04T10:21:34.733Z,45.64
2023-02-04T10:23:39.034Z,45.82
2023-02-04T10:25:40.322Z,45.70
2023-02-04T10:27:41.988Z,45.94
2023-02-04T10:29:43.520Z,45.53
2023-02-04T10:31:44.974Z,45.74
2023-02-04T10:33:46.368Z,46.00
2023-02-04T10:35:47.706Z,46.45
2023-02-04T10:37:49.014Z,46.38
2023-02-04T10:39:50.341Z,46.48
2023-02-04T10:41:51.675Z,46.90
2023-02-04T10:43:52.967Z,46.91
2023-02-04T10:45:54.270Z,47.57
2023-02-04T10:47:55.619Z,47.38
2023-02-04T10:49:57.054Z,46.87
2023-02-04T10:51:58.357Z,47.75
2023-02-04T10:54:18.434Z,47.16
2023-02-04T10:56:19.840Z,47.99
2023-02-04T10:58:21.170Z,48.28
2023-02-04T11:00:22.711Z,49.29
2023-02-04T11:02:24.031Z,49.50
2023-02-04T11:04:25.436Z,49.22
2023-02-04T11:06:26.838Z,49.66
2023-02-04T11:08:28.242Z,49.32
2023-02-04T11:10:29.718Z,49.29
2023-02-04T11:12:34.107Z,49.70
2023-02-04T11:14:35.477Z,49.14
2023-02-04T11:16:36.771Z,49.61
2023-02-04T11:18:38.108Z,49.68
2023-02-04T11:20:40.676Z,49.38
2023-02-04T11:22:42.637Z,49.63
2023-02-04T11:24:43.974Z,49.51
2023-02-04T11:26:45.254Z,49.33
2023-02-04T11:28:46.595Z,49.64
2023-02-04T11:30:49.164Z,49.40
2023-02-04T11:32:50.581Z,49.90
2023-02-04T11:34:53.044Z,49.35
2023-02-04T11:36:54.327Z,49.24
2023-02-04T11:38:55.660Z,49.24
2023-02-04T11:40:57.198Z,49.49
2023-02-04T11:43:01.276Z,49.78
2023-02-04T11:45:02.708Z,49.75
2023-02-04T11:47:04.073Z,49.38
2023-02-04T11:49:05.444Z,49.29
2023-02-04T11:51:06.786Z,49.55
2023-02-04T11:53:08.190Z,48.93
2023-02-04T11:55:09.492Z,48.80
2023-02-04T11:57:10.837Z,49.27
2023-02-04T11:59:12.155Z,49.14
2023-02-04T12:01:14.421Z,48.81
2023-02-04T12:03:15.756Z,49.13
2023-02-04T12:05:17.156Z,49.99
2023-02-04T12:07:18.454Z,48.89
2023-02-04T12:09:22.920Z,49.33
2023-02-04T12:11:25.986Z,49.63
2023-02-04T12:13:30.893Z,49.54
2023-02-04T12:15:38.838Z,48.35
2023-02-04T12:17:40.237Z,49.46
2023-02-04T12:19:41.522Z,50.30
2023-02-04T12:21:43.151Z,50.44
2023-02-04T12:23:44.467Z,50.80
2023-02-04T12:25:45.794Z,51.14
2023-02-04T12:27:47.227Z,51.56
2023-02-04T12:29:48.543Z,51.78
2023-02-04T12:31:49.940Z,51.70
2023-02-04T12:33:51.359Z,52.03
2023-02-04T12:35:52.678Z,51.64
2023-02-04T12:37:56.703Z,52.01
2023-02-04T12:39:58.045Z,51.92
2023-02-04T12:41:59.349Z,51.97
2023-02-04T12:44:01.393Z,51.86
2023-02-04T12:46:05.604Z,52.03
2023-02-04T12:48:06.935Z,52.71
2023-02-04T12:50:08.340Z,53.03
2023-02-04T12:52:09.695Z,52.63
2023-02-04T12:54:11.023Z,53.22
2023-02-04T12:56:12.376Z,52.83
2023-02-04T12:58:13.667Z,53.14
2023-02-04T13:00:15.088Z,53.28
2023-02-04T13:02:16.432Z,53.26
2023-02-04T13:04:17.771Z,53.20
2023-02-04T13:06:19.137Z,53.16
2023-02-04T13:08:23.470Z,52.96
2023-02-04T13:10:25.232Z,52.97
2023-02-04T13:12:26.564Z,53.64
2023-02-04T13:14:27.914Z,53.44
2023-02-04T13:16:32.094Z,53.48
2023-02-04T13:18:34.235Z,52.75
2023-02-04T13:20:35.547Z,53.50
2023-02-04T13:22:36.843Z,52.81
2023-02-04T13:24:41.300Z,52.57
2023-02-04T13:26:42.595Z,51.91
2023-02-04T13:28:43.901Z,51.90
2023-02-04T13:30:45.263Z,51.44
2023-02-04T13:32:46.578Z,52.20
2023-02-04T13:34:57.035Z,51.52
2023-02-04T13:36:58.368Z,51.10
2023-02-04T13:39:00.773Z,51.52
2023-02-04T13:41:02.194Z,50.98
2023-02-04T13:43:03.577Z,51.07
2023-02-04T13:45:05.167Z,51.35
2023-02-04T13:47:06.520Z,51.29
2023-02-04T13:49:07.856Z,51.29
2023-02-04T13:51:09.250Z,51.04
2023-02-04T13:53:10.584Z,51.36
2023-02-04T13:55:11.920Z,51.06
2023-02-04T13:57:13.210Z,51.12
2023-02-04T13:59:14.558Z,51.16
2023-02-04T14:01:15.918Z,51.53
2023-02-04T14:03:17.232Z,51.03
2023-02-04T14:05:18.558Z,51.47
2023-02-04T14:07:19.904Z,51.31
2023-02-04T14:09:21.702Z,51.29
2023-02-04T14:11:23.067Z,50.96
2023-02-04T14:13:24.401Z,51.40
2023-02-04T14:15:25.694Z,50.86
2023-02-04T14:17:27.031Z,51.18
2023-02-04T14:19:28.648Z,50.65
2023-02-04T14:21:30.023Z,50.91
2023-02-04T14:23:31.384Z,51.03
2023-02-04T14:25:32.694Z,50.54
2023-02-04T14:27:35.459Z,50.37
2023-02-04T14:29:36.883Z,50.31
2023-02-04T14:31:38.250Z,50.80
2023-02-04T14:33:39.574Z,50.11
2023-02-04T14:35:40.922Z,50.16
2023-02-04T14:37:42.225Z,50.14
2023-02-04T14:39:43.506Z,49.90
2023-02-04T14:41:44.999Z,49.94
2023-02-04T14:43:46.295Z,49.98
2023-02-04T14:45:47.679Z,49.91
2023-02-04T14:47:49.047Z,49.89
2023-02-04T14:49:53.260Z,50.03
2023-02-04T14:51:54.977Z,49.89
2023-02-04T14:53:56.331Z,50.32
2023-02-04T14:55:57.728Z,50.32
2023-02-04T14:57:59.026Z,50.09
2023-02-04T15:00:00.391Z,50.45
2023-02-04T15:02:10.965Z,50.32
2023-02-04T15:04:12.332Z,50.21
2023-02-04T15:06:13.668Z,50.54
2023-02-04T15:08:14.966Z,50.26
2023-02-04T15:10:16.273Z,50.62
2023-02-04T15:12:17.755Z,50.37
2023-02-04T15:14:19.066Z,50.68
2023-02-04T15:16:20.601Z,50.64
2023-02-04T15:18:22.134Z,50.67
2023-02-04T15:20:23.528Z,50.72
2023-02-04T15:22:24.878Z,50.77
2023-02-04T15:24:27.864Z,50.33
2023-02-04T15:26:29.219Z,50.32
2023-02-04T15:28:31.412Z,50.44
2023-02-04T15:30:33.021Z,50.25
2023-02-04T15:32:34.659Z,50.32
2023-02-04T15:34:36.924Z,50.66
2023-02-04T15:36:38.275Z,50.18
2023-02-04T15:38:39.588Z,50.17
2023-02-04T15:40:40.924Z,49.93
2023-02-04T15:42:42.966Z,49.61
2023-02-04T15:44:44.253Z,49.88
2023-02-04T15:46:45.544Z,49.73
2023-02-04T15:48:46.944Z,49.55
2023-02-04T15:50:48.276Z,49.50
2023-02-04T15:52:49.642Z,49.34
2023-02-04T15:54:50.983Z,49.33
2023-02-04T15:56:52.292Z,49.36
2023-02-04T15:58:54.787Z,49.15
2023-02-04T16:00:58.761Z,49.19
2023-02-04T16:03:00.103Z,49.46
2023-02-04T16:05:02.230Z,49.20
2023-02-04T16:07:08.213Z,49.39
2023-02-04T16:09:09.624Z,49.30
2023-02-04T16:11:10.936Z,49.26
2023-02-04T16:13:12.240Z,49.80
2023-02-04T16:15:13.579Z,49.38
2023-02-04T16:17:14.920Z,49.40
2023-02-04T16:19:22.023Z,50.11
2023-02-04T16:21:23.355Z,49.50
2023-02-04T16:23:24.692Z,49.71
2023-02-04T16:25:26.090Z,49.51
2023-02-04T16:27:27.434Z,50.02
2023-02-04T16:29:31.594Z,49.99
2023-02-04T16:31:33.018Z,50.29
2023-02-04T16:33:34.436Z,50.13
2023-02-04T16:35:35.725Z,50.03
2023-02-04T16:37:37.819Z,49.94
2023-02-04T16:39:39.215Z,49.94
2023-02-04T16:41:40.521Z,49.95
2023-02-04T16:43:41.946Z,49.88
2023-02-04T16:45:43.247Z,50.13
2023-02-04T16:47:47.655Z,50.25
2023-02-04T16:49:48.971Z,50.02
2023-02-04T16:51:50.311Z,49.92
2023-02-04T16:53:51.681Z,49.54
2023-02-04T16:55:53.045Z,49.46
2023-02-04T16:57:54.454Z,49.31
2023-02-04T16:59:56.733Z,49.33
2023-02-04T17:01:58.216Z,49.43
2023-02-04T17:03:59.589Z,49.41
2023-02-04T17:06:03.799Z,49.23
2023-02-04T17:08:05.157Z,49.58
2023-02-04T17:10:06.527Z,49.81
2023-02-04T17:12:07.848Z,49.89
2023-02-04T17:14:09.958Z,49.93
2023-02-04T17:16:11.409Z,50.26
2023-02-04T17:18:12.836Z,50.35
2023-02-04T17:20:17.095Z,50.44
2023-02-04T17:22:21.549Z,50.45
2023-02-04T17:24:24.536Z,50.40
2023-02-04T17:26:25.828Z,50.48
2023-02-04T17:28:27.247Z,50.36
2023-02-04T17:30:29.274Z,50.10
2023-02-04T17:32:33.490Z,50.08
2023-02-04T17:34:35.263Z,50.14
2023-02-04T17:36:36.603Z,50.00
2023-02-04T17:38:37.939Z,49.82
2023-02-04T17:40:39.239Z,49.63
2023-02-04T17:42:40.772Z,49.61
2023-02-04T17:44:42.229Z,49.19
2023-02-04T17:46:43.748Z,48.92
2023-02-04T17:48:45.179Z,48.52
2023-02-04T17:50:46.505Z,48.77
2023-02-04T17:52:47.828Z,48.72
2023-02-04T17:54:49.132Z,48.59
2023-02-04T17:56:50.470Z,48.36
2023-02-04T17:58:51.906Z,48.40
2023-02-04T18:00:53.412Z,48.58
2023-02-04T18:02:55.101Z,48.29
2023-02-04T18:04:56.524Z,48.64
2023-02-04T18:07:04.304Z,48.41
2023-02-04T18:09:06.368Z,48.63
2023-02-04T18:11:07.668Z,48.33
2023-02-04T18:13:08.988Z,48.69
2023-02-04T18:15:10.288Z,48.71
2023-02-04T18:17:11.616Z,48.64
2023-02-04T18:19:13.258Z,48.43
2023-02-04T18:21:14.721Z,49.22
2023-02-04T18:23:16.063Z,49.22
2023-02-04T18:25:17.694Z,48.96
2023-02-04T18:27:19.549Z,49.06
2023-02-04T18:29:20.871Z,49.40
2023-02-04T18:31:22.177Z,49.26
2023-02-04T18:33:23.544Z,49.58
2023-02-04T18:35:24.848Z,49.38
2023-02-04T18:37:26.137Z,49.46
2023-02-04T18:39:30.307Z,49.61
2023-02-04T18:41:33.764Z,49.39
2023-02-04T18:43:35.103Z,49.25
2023-02-04T18:45:39.271Z,49.47
2023-02-04T18:47:40.570Z,49.49
2023-02-04T18:49:43.896Z,49.49
2023-02-04T18:51:45.323Z,49.21
2023-02-04T18:53:46.775Z,49.25
2023-02-04T18:55:51.127Z,49.45
2023-02-04T18:57:55.136Z,49.43
2023-02-04T18:59:59.359Z,48.78
2023-02-04T19:02:00.760Z,49.00
2023-02-04T19:04:02.243Z,48.87
2023-02-04T19:06:03.539Z,48.57
2023-02-04T19:08:04.860Z,48.22
2023-02-04T19:10:06.154Z,48.32
2023-02-04T19:12:07.496Z,47.99
2023-02-04T19:14:08.784Z,47.90
2023-02-04T19:16:10.127Z,48.18
2023-02-04T19:18:11.899Z,47.96
2023-02-04T19:20:13.250Z,47.91
2023-02-04T19:22:14.700Z,47.89
2023-02-04T19:24:17.787Z,48.33
2023-02-04T19:26:19.128Z,48.20
2023-02-04T19:28:22.222Z,48.09
2023-02-04T19:30:24.738Z,48.41
2023-02-04T19:32:27.412Z,48.55
2023-02-04T19:34:28.893Z,48.26
2023-02-04T19:36:37.155Z,48.45
2023-02-04T19:38:38.559Z,48.36
2023-02-04T19:40:39.859Z,48.32
2023-02-04T19:42:41.212Z,48.71
2023-02-04T19:44:42.564Z,48.86
2023-02-04T19:46:43.965Z,48.49
2023-02-04T19:48:45.259Z,48.69
2023-02-04T19:50:46.547Z,47.85
2023-02-04T19:52:47.883Z,47.85
2023-02-04T19:54:49.196Z,47.95
2023-02-04T19:56:50.533Z,47.94
2023-02-04T19:58:52.945Z,47.83
2023-02-04T20:00:54.291Z,48.21
2023-02-04T20:02:58.955Z,48.60
2023-02-04T20:05:00.256Z,48.49
2023-02-04T20:07:01.563Z,48.49
2023-02-04T20:09:02.972Z,48.91
2023-02-04T20:11:04.299Z,48.61
2023-02-04T20:13:08.622Z,48.19
2023-02-04T20:15:12.873Z,47.69
2023-02-04T20:17:14.280Z,47.71
2023-02-04T20:19:15.678Z,47.48
2023-02-04T20:21:16.975Z,47.73
2023-02-04T20:23:18.261Z,48.04
2023-02-04T20:25:19.594Z,48.27
2023-02-04T20:27:20.933Z,47.65
2023-02-04T20:29:22.310Z,49.70
2023-02-04T20:31:24.515Z,48.26
2023-02-04T20:33:29.341Z,48.04
2023-02-04T20:35:33.907Z,47.88
2023-02-04T20:37:35.391Z,48.37
2023-02-04T20:39:37.090Z,48.91
2023-02-04T20:41:41.042Z,48.90
2023-02-04T20:43:42.452Z,49.25
2023-02-04T20:45:43.741Z,48.85
2023-02-04T20:47:45.450Z,48.85
2023-02-04T20:49:46.725Z,49.09
2023-02-04T20:51:48.285Z,49.43
2023-02-04T20:53:50.196Z,49.92
2023-02-04T20:55:51.540Z,49.63
2023-02-04T20:57:52.867Z,50.58
2023-02-04T20:59:54.251Z,49.33
2023-02-04T21:01:58.707Z,48.62
2023-02-04T21:04:00.500Z,49.03
2023-02-04T21:06:04.599Z,48.88
2023-02-04T21:08:05.942Z,48.67
2023-02-04T21:10:07.611Z,47.79
2023-02-04T21:12:09.019Z,48.53
2023-02-04T21:14:10.395Z,47.83
2023-02-04T21:16:11.738Z,47.81
2023-02-04T21:18:15.986Z,48.75
2023-02-04T21:20:17.319Z,48.92
2023-02-04T21:22:18.621Z,49.77
2023-02-04T21:24:20.026Z,49.74
2023-02-04T21:26:24.033Z,50.27
2023-02-04T21:28:25.339Z,49.08
2023-02-04T21:30:30.218Z,49.02
2023-02-04T21:32:31.667Z,49.58
2023-02-04T21:34:33.001Z,49.10
2023-02-04T21:36:34.433Z,49.04
2023-02-04T21:38:35.769Z,48.82
2023-02-04T21:40:37.123Z,48.72
2023-02-04T21:42:38.448Z,48.90
2023-02-04T21:44:39.805Z,49.05
2023-02-04T21:46:41.691Z,49.24
2023-02-04T21:48:43.047Z,49.26
2023-02-04T21:50:44.444Z,49.27
2023-02-04T21:52:45.756Z,49.97
2023-02-04T21:54:47.060Z,50.05
2023-02-04T21:56:48.352Z,49.61
2023-02-04T21:58:49.653Z,50.02
2023-02-04T22:00:50.958Z,49.36
2023-02-04T22:02:52.380Z,49.65
2023-02-04T22:04:53.678Z,50.70
2023-02-04T22:06:56.021Z,50.17
2023-02-04T22:08:57.315Z,50.08
2023-02-04T22:10:58.717Z,49.37
2023-02-04T22:13:00.053Z,48.59
2023-02-04T22:15:19.867Z,48.44
2023-02-04T22:17:21.161Z,47.88
2023-02-04T22:19:22.695Z,48.87
2023-02-04T22:21:23.991Z,49.33
2023-02-04T22:23:25.288Z,49.47
2023-02-04T22:25:26.636Z,48.76
2023-02-04T22:27:30.995Z,49.31
2023-02-04T22:29:33.525Z,49.18
2023-02-04T22:31:34.862Z,50.78
2023-02-04T22:33:36.252Z,48.52
2023-02-04T22:35:38.211Z,47.71
2023-02-04T22:37:39.599Z,48.07
2023-02-04T22:39:40.932Z,48.26
2023-02-04T22:41:42.229Z,48.48
2023-02-04T22:43:43.522Z,48.70
2023-02-04T22:45:44.842Z,48.72
2023-02-04T22:47:46.148Z,49.15
2023-02-04T22:49:47.480Z,48.95
2023-02-04T22:51:48.832Z,49.38
2023-02-04T22:53:50.158Z,49.49
2023-02-04T22:55:51.485Z,49.58
2023-02-04T22:57:52.784Z,49.74
2023-02-04T22:59:54.091Z,49.74
2023-02-04T23:01:55.421Z,50.38
2023-02-04T23:03:56.720Z,50.08
2023-02-04T23:05:58.055Z,49.56
2023-02-04T23:07:59.351Z,49.66
2023-02-04T23:10:00.690Z,49.25
2023-02-04T23:12:14.930Z,49.53
2023-02-04T23:14:16.267Z,48.83
2023-02-04T23:16:17.626Z,48.90
2023-02-04T23:18:18.919Z,49.33
2023-02-04T23:20:20.272Z,49.51
2023-02-04T23:22:21.617Z,49.28
2023-02-04T23:24:22.936Z,49.46
2023-02-04T23:26:24.288Z,48.84
2023-02-04T23:28:25.594Z,49.51
2023-02-04T23:30:26.923Z,49.21
2023-02-04T23:32:29.752Z,48.94
2023-02-04T23:34:31.090Z,48.86
2023-02-04T23:36:33.049Z,39.61
2023-02-04T23:38:34.376Z,33.46
2023-02-04T23:40:35.668Z,41.03
2023-02-04T23:42:36.971Z,41.33
2023-02-04T23:44:38.314Z,41.81
2023-02-04T23:46:39.653Z,42.57
2023-02-04T23:48:40.987Z,42.88
2023-02-04T23:50:42.285Z,43.40
2023-02-04T23:52:43.640Z,43.91
2023-02-04T23:54:44.959Z,44.57
2023-02-04T23:56:46.347Z,44.73
2023-02-04T23:58:47.678Z,44.66
